createdAt,value
2023-12-19T00:01:47.924Z,9.15
2023-12-19T00:04:19.765Z,9.80
2023-12-19T00:06:46.642Z,9.90
2023-12-19T00:09:13.525Z,9.48
2023-12-19T00:11:40.230Z,7.40
2023-12-19T00:14:08.298Z,9.20
2023-12-19T00:16:37.305Z,8.43
2023-12-19T00:19:04.244Z,8.32
2023-12-19T00:21:30.962Z,10.30
2023-12-19T00:23:57.702Z,10.15
2023-12-19T00:26:24.540Z,9.18
2023-12-19T00:28:51.201Z,10.38
2023-12-19T00:31:24.129Z,9.88
2023-12-19T00:33:51.201Z,9.32
2023-12-19T00:36:24.980Z,9.20
2023-12-19T00:38:51.922Z,9.98
2023-12-19T00:41:18.845Z,8.80
2023-12-19T00:43:46.649Z,9.85
2023-12-19T00:46:14.042Z,7.43
2023-12-19T00:48:41.391Z,9.75
2023-12-19T00:51:11.940Z,9.43
2023-12-19T00:53:39.221Z,10.13
2023-12-19T00:56:13.012Z,8.70
2023-12-19T00:58:40.852Z,8.55
2023-12-19T01:01:08.592Z,10.07
2023-12-19T01:03:36.670Z,9.50
2023-12-19T01:06:04.533Z,9.70
2023-12-19T01:08:31.771Z,10.57
2023-12-19T01:10:58.676Z,7.20
2023-12-19T01:13:25.349Z,10.27
2023-12-19T01:15:52.242Z,10.98
2023-12-19T01:18:19.454Z,10.38
2023-12-19T01:20:48.596Z,9.82
2023-12-19T01:23:16.829Z,11.07
2023-12-19T01:25:43.599Z,10.65
2023-12-19T01:28:12.626Z,10.90
2023-12-19T01:30:41.221Z,12.57
2023-12-19T01:33:11.302Z,10.90
2023-12-19T01:35:38.272Z,9.05
2023-12-19T01:38:05.365Z,8.70
2023-12-19T01:40:35.131Z,9.13
2023-12-19T01:43:03.040Z,8.80
2023-12-19T01:45:30.891Z,10.98
2023-12-19T01:47:58.359Z,10.05
2023-12-19T01:50:25.382Z,10.05
2023-12-19T01:52:57.841Z,7.25
2023-12-19T01:55:26.314Z,10.25
2023-12-19T01:57:55.254Z,5.88
2023-12-19T02:00:22.590Z,10.30
2023-12-19T02:02:54.630Z,9.27
2023-12-19T02:05:21.830Z,8.98
2023-12-19T02:07:49.893Z,9.57
2023-12-19T02:10:17.087Z,8.50
2023-12-19T02:12:44.800Z,8.55
2023-12-19T02:15:13.228Z,4.70
2023-12-19T02:17:41.647Z,9.88
2023-12-19T02:20:09.299Z,9.23
2023-12-19T02:22:37.177Z,8.80
2023-12-19T02:25:04.250Z,9.48
2023-12-19T02:27:31.518Z,9.77
2023-12-19T02:29:58.328Z,7.25
2023-12-19T02:32:25.165Z,8.93
2023-12-19T02:34:52.002Z,9.13
2023-12-19T02:37:18.793Z,2.40
2023-12-19T02:39:45.555Z,8.00
2023-12-19T02:42:13.551Z,9.13
2023-12-19T02:44:40.311Z,8.95
2023-12-19T02:47:07.095Z,9.27
2023-12-19T02:49:34.652Z,7.65
2023-12-19T02:52:01.861Z,8.80
2023-12-19T02:54:28.684Z,7.65
2023-12-19T02:56:55.415Z,8.35
2023-12-19T02:59:22.137Z,8.63
2023-12-19T03:01:49.253Z,5.88
2023-12-19T03:04:16.437Z,8.15
2023-12-19T03:06:43.553Z,8.18
2023-12-19T03:09:10.437Z,9.38
2023-12-19T03:11:40.600Z,10.38
2023-12-19T03:14:07.462Z,6.88
2023-12-19T03:16:34.400Z,8.18
2023-12-19T03:19:01.614Z,10.00
2023-12-19T03:21:28.489Z,11.38
2023-12-19T03:23:55.183Z,8.45
2023-12-19T03:26:21.943Z,4.53
2023-12-19T03:28:49.176Z,10.88
2023-12-19T03:31:16.743Z,9.40
2023-12-19T03:33:43.702Z,10.45
2023-12-19T03:36:10.549Z,8.32
2023-12-19T03:38:37.312Z,8.32
2023-12-19T03:41:04.616Z,8.70
2023-12-19T03:43:31.377Z,8.70
2023-12-19T03:46:02.561Z,9.32
2023-12-19T03:48:30.063Z,7.25
2023-12-19T03:50:57.613Z,9.88
2023-12-19T03:53:24.383Z,7.72
2023-12-19T03:55:51.154Z,8.07
2023-12-19T03:58:17.847Z,7.47
2023-12-19T04:00:44.606Z,7.93
2023-12-19T04:03:11.486Z,6.22
2023-12-19T04:05:38.272Z,8.13
2023-12-19T04:08:05.351Z,9.73
2023-12-19T04:10:32.077Z,9.88
2023-12-19T04:12:58.980Z,5.93
2023-12-19T04:15:25.739Z,7.45
2023-12-19T04:17:52.579Z,6.70
2023-12-19T04:20:19.361Z,8.35
2023-12-19T04:22:46.339Z,7.90
2023-12-19T04:25:13.472Z,7.63
2023-12-19T04:27:40.862Z,5.40
2023-12-19T04:30:08.337Z,6.75
2023-12-19T04:32:35.274Z,7.15
2023-12-19T04:35:02.133Z,7.05
2023-12-19T04:37:28.857Z,5.38
2023-12-19T04:39:55.692Z,7.43
2023-12-19T04:42:22.945Z,7.32
2023-12-19T04:44:49.812Z,7.07
2023-12-19T04:47:16.849Z,7.70
2023-12-19T04:49:44.489Z,7.90
2023-12-19T04:52:11.417Z,7.47
2023-12-19T04:54:38.285Z,6.43
2023-12-19T04:57:06.833Z,7.90
2023-12-19T04:59:33.788Z,5.78
2023-12-19T05:02:00.619Z,7.03
2023-12-19T05:04:27.618Z,7.30
2023-12-19T05:06:54.588Z,7.13
2023-12-19T05:09:21.797Z,6.15
2023-12-19T05:11:48.659Z,7.00
2023-12-19T05:14:15.403Z,6.10
2023-12-19T05:16:42.098Z,6.20
2023-12-19T05:19:08.931Z,5.50
2023-12-19T05:21:39.540Z,5.25
2023-12-19T05:24:06.918Z,5.57
2023-12-19T05:26:33.858Z,5.63
2023-12-19T05:29:00.672Z,5.10
2023-12-19T05:31:27.526Z,5.10
2023-12-19T05:33:54.387Z,5.68
2023-12-19T05:36:22.049Z,4.70
2023-12-19T05:38:48.950Z,3.38
2023-12-19T05:41:17.627Z,5.45
2023-12-19T05:43:44.933Z,4.25
2023-12-19T05:46:11.834Z,4.70
2023-12-19T05:48:38.761Z,4.75
2023-12-19T05:51:06.077Z,3.90
2023-12-19T05:53:32.806Z,4.78
2023-12-19T05:55:59.517Z,4.55
2023-12-19T05:58:26.214Z,3.60
2023-12-19T06:00:56.994Z,4.40
2023-12-19T06:03:24.605Z,4.43
2023-12-19T06:05:51.684Z,3.80
2023-12-19T06:08:19.141Z,3.53
2023-12-19T06:10:46.105Z,2.80
2023-12-19T06:13:13.217Z,4.15
2023-12-19T06:15:40.113Z,4.05
2023-12-19T06:18:07.262Z,3.72
2023-12-19T06:20:34.206Z,3.78
2023-12-19T06:23:01.001Z,3.50
2023-12-19T06:25:27.743Z,2.67
2023-12-19T06:27:57.217Z,3.35
2023-12-19T06:30:28.879Z,4.57
2023-12-19T06:32:59.172Z,4.05
2023-12-19T06:35:28.179Z,3.90
2023-12-19T06:37:56.120Z,4.70
2023-12-19T06:40:24.142Z,4.50
2023-12-19T06:42:51.517Z,4.72
2023-12-19T06:45:20.053Z,4.90
2023-12-19T06:47:47.801Z,3.97
2023-12-19T06:50:17.563Z,0.43
2023-12-19T06:52:44.504Z,3.63
2023-12-19T06:55:13.000Z,2.30
2023-12-19T06:57:39.934Z,5.18
2023-12-19T07:00:07.615Z,6.03
2023-12-19T07:02:36.998Z,6.93
2023-12-19T07:05:04.567Z,3.03
2023-12-19T07:07:31.455Z,4.85
2023-12-19T07:09:58.209Z,5.55
2023-12-19T07:12:24.993Z,5.00
2023-12-19T07:14:51.706Z,2.90
2023-12-19T07:17:18.528Z,6.30
2023-12-19T07:19:45.477Z,4.18
2023-12-19T07:22:12.441Z,5.97
2023-12-19T07:24:39.779Z,7.35
2023-12-19T07:27:06.756Z,3.30
2023-12-19T07:29:33.607Z,6.43
2023-12-19T07:32:01.921Z,5.78
2023-12-19T07:34:29.203Z,2.63
2023-12-19T07:36:56.009Z,6.97
2023-12-19T07:39:22.735Z,5.53
2023-12-19T07:41:49.530Z,0.90
2023-12-19T07:44:17.579Z,1.67
2023-12-19T07:46:44.509Z,7.90
2023-12-19T07:49:12.321Z,1.00
2023-12-19T07:51:39.597Z,7.50
2023-12-19T07:54:06.507Z,6.25
2023-12-19T07:56:33.294Z,7.30
2023-12-19T07:58:59.980Z,6.88
2023-12-19T08:01:26.960Z,7.05
2023-12-19T08:03:53.909Z,4.68
2023-12-19T08:06:20.763Z,7.25
2023-12-19T08:08:50.782Z,6.55
2023-12-19T08:11:18.326Z,6.57
2023-12-19T08:13:45.419Z,7.30
2023-12-19T08:16:12.514Z,6.75
2023-12-19T08:18:39.542Z,7.80
2023-12-19T08:21:06.617Z,8.45
2023-12-19T08:23:33.657Z,8.15
2023-12-19T08:26:00.554Z,6.47
2023-12-19T08:28:27.327Z,7.97
2023-12-19T08:30:54.200Z,5.80
2023-12-19T08:33:22.322Z,7.88
2023-12-19T08:35:50.423Z,7.83
2023-12-19T08:38:17.202Z,6.20
2023-12-19T08:40:43.908Z,8.07
2023-12-19T08:43:10.884Z,7.97
2023-12-19T08:45:38.017Z,8.38
2023-12-19T08:48:06.203Z,2.85
2023-12-19T08:50:33.065Z,6.38
2023-12-19T08:53:00.016Z,6.70
2023-12-19T08:55:27.072Z,7.10
2023-12-19T08:57:53.915Z,6.68
2023-12-19T09:00:22.823Z,7.45
2023-12-19T09:02:50.170Z,7.57
2023-12-19T09:05:19.457Z,7.40
2023-12-19T09:07:50.225Z,7.90
2023-12-19T09:10:18.570Z,4.07
2023-12-19T09:12:46.409Z,6.88
2023-12-19T09:15:13.485Z,5.70
2023-12-19T09:17:40.708Z,5.97
2023-12-19T09:20:09.437Z,7.20
2023-12-19T09:22:36.847Z,3.92
2023-12-19T09:25:04.120Z,6.13
2023-12-19T09:27:30.986Z,5.30
2023-12-19T09:29:57.801Z,5.28
2023-12-19T09:32:24.626Z,6.05
2023-12-19T09:34:52.055Z,5.65
2023-12-19T09:37:23.165Z,6.03
2023-12-19T09:39:53.158Z,5.63
2023-12-19T09:42:21.164Z,4.82
2023-12-19T09:44:51.920Z,4.75
2023-12-19T09:47:26.055Z,5.35
2023-12-19T09:49:55.519Z,4.93
2023-12-19T09:52:25.794Z,4.70
2023-12-19T09:54:53.285Z,5.22
2023-12-19T09:57:25.184Z,5.60
2023-12-19T09:59:56.964Z,5.15
2023-12-19T10:02:26.665Z,5.40
2023-12-19T10:04:54.168Z,5.68
2023-12-19T10:07:21.552Z,5.32
2023-12-19T10:09:56.714Z,5.78
2023-12-19T10:12:33.264Z,4.82
2023-12-19T10:15:14.214Z,5.55
2023-12-19T10:17:41.716Z,4.45
2023-12-19T10:20:12.516Z,5.03
2023-12-19T10:22:39.717Z,5.40
2023-12-19T10:25:08.834Z,5.28
2023-12-19T10:27:36.683Z,4.25
2023-12-19T10:30:24.354Z,3.97
2023-12-19T10:32:57.056Z,4.65
2023-12-19T10:35:23.963Z,5.28
2023-12-19T10:37:50.985Z,4.70
2023-12-19T10:40:21.093Z,4.05
2023-12-19T10:42:57.689Z,4.07
2023-12-19T10:45:26.085Z,4.65
2023-12-19T10:48:08.927Z,4.47
2023-12-19T10:50:38.332Z,4.53
2023-12-19T10:53:07.937Z,4.20
2023-12-19T10:55:50.146Z,3.97
2023-12-19T10:58:21.526Z,3.78
2023-12-19T11:00:52.283Z,3.88
2023-12-19T11:03:42.081Z,3.80
2023-12-19T11:06:11.025Z,4.60
2023-12-19T11:08:41.976Z,5.03
2023-12-19T11:11:21.065Z,4.30
2023-12-19T11:13:49.604Z,4.00
2023-12-19T11:16:27.667Z,3.63
2023-12-19T11:19:19.920Z,4.50
2023-12-19T11:22:05.711Z,1.80
2023-12-19T11:24:38.838Z,4.20
2023-12-19T11:27:14.419Z,4.38
2023-12-19T11:29:51.604Z,4.60
2023-12-19T11:32:31.089Z,3.00
2023-12-19T11:35:07.997Z,3.33
2023-12-19T11:37:34.924Z,3.28
2023-12-19T11:40:01.735Z,4.20
2023-12-19T11:42:41.042Z,4.50
2023-12-19T11:45:19.907Z,4.30
2023-12-19T11:47:49.942Z,3.85
2023-12-19T11:50:43.470Z,3.97
2023-12-19T11:53:10.298Z,3.58
2023-12-19T11:55:37.183Z,4.07
2023-12-19T11:58:11.429Z,4.15
2023-12-19T12:00:40.627Z,3.53
2023-12-19T12:03:09.893Z,3.47
2023-12-19T12:05:37.849Z,3.25
2023-12-19T12:08:06.097Z,3.35
2023-12-19T12:10:32.836Z,3.03
2023-12-19T12:13:03.240Z,3.33
2023-12-19T12:18:04.849Z,2.85
2023-12-19T12:20:33.683Z,2.75
2023-12-19T12:23:01.024Z,3.10
2023-12-19T12:25:28.729Z,2.10
2023-12-19T12:28:08.519Z,2.92
2023-12-19T12:30:35.709Z,2.90
2023-12-19T12:33:06.298Z,2.85
2023-12-19T12:38:18.053Z,2.67
2023-12-19T12:41:11.499Z,2.42
2023-12-19T12:43:50.979Z,2.28
2023-12-19T12:46:25.403Z,2.35
2023-12-19T12:48:55.933Z,2.60
2023-12-19T12:51:23.559Z,2.03
2023-12-19T12:53:58.704Z,1.85
2023-12-19T12:56:40.124Z,2.10
2023-12-19T12:59:14.839Z,2.20
2023-12-19T13:01:43.360Z,2.20
2023-12-19T13:04:10.961Z,2.08
2023-12-19T13:06:43.702Z,2.22
2023-12-19T13:09:15.310Z,1.85
2023-12-19T13:11:44.021Z,2.17
2023-12-19T13:14:14.490Z,2.15
2023-12-19T13:19:08.603Z,1.55
2023-12-19T13:21:35.417Z,1.98
2023-12-19T13:24:02.184Z,2.28
2023-12-19T13:26:33.821Z,2.00
2023-12-19T13:29:02.899Z,2.25
2023-12-19T13:31:30.505Z,1.60
2023-12-19T13:33:58.795Z,1.85
2023-12-19T13:36:25.644Z,2.40
2023-12-19T13:38:52.428Z,1.98
2023-12-19T13:41:19.308Z,2.15
2023-12-19T13:43:46.450Z,2.15
2023-12-19T13:46:13.474Z,2.33
2023-12-19T13:48:43.733Z,2.20
2023-12-19T13:51:11.628Z,2.40
2023-12-19T13:53:38.591Z,1.90
2023-12-19T13:56:06.157Z,2.45
2023-12-19T13:58:34.003Z,2.13
2023-12-19T14:01:01.389Z,2.03
2023-12-19T14:03:28.684Z,2.20
2023-12-19T14:05:55.800Z,2.50
2023-12-19T14:08:22.645Z,1.75
2023-12-19T14:10:51.708Z,2.65
2023-12-19T14:13:18.725Z,2.65
2023-12-19T14:15:46.604Z,2.22
2023-12-19T14:18:13.515Z,2.85
2023-12-19T14:20:40.465Z,2.88
2023-12-19T14:23:07.182Z,3.55
2023-12-19T14:25:34.127Z,3.08
2023-12-19T14:28:00.970Z,2.95
2023-12-19T14:30:27.866Z,3.20
2023-12-19T14:32:54.747Z,3.10
2023-12-19T14:35:22.175Z,3.00
2023-12-19T14:37:51.069Z,3.90
2023-12-19T14:40:18.808Z,3.25
2023-12-19T14:42:46.129Z,3.42
2023-12-19T14:45:12.954Z,3.30
2023-12-19T14:47:40.530Z,3.85
2023-12-19T14:50:09.504Z,3.60
2023-12-19T14:52:36.422Z,3.58
2023-12-19T14:55:04.765Z,3.92
2023-12-19T14:57:31.748Z,3.92
2023-12-19T14:59:58.876Z,3.95
2023-12-19T15:02:26.897Z,3.40
2023-12-19T15:04:53.796Z,3.60
2023-12-19T15:07:20.639Z,3.28
2023-12-19T15:09:47.479Z,3.35
2023-12-19T15:12:14.281Z,3.20
2023-12-19T15:14:41.208Z,4.07
2023-12-19T15:17:07.919Z,3.53
2023-12-19T15:19:36.724Z,3.80
2023-12-19T15:22:03.680Z,3.80
2023-12-19T15:24:32.539Z,3.90
2023-12-19T15:26:59.254Z,3.92
2023-12-19T15:29:26.353Z,4.03
2023-12-19T15:31:53.455Z,4.03
2023-12-19T15:34:20.756Z,3.60
2023-12-19T15:36:48.283Z,3.88
2023-12-19T15:39:15.080Z,3.88
2023-12-19T15:41:41.926Z,4.20
2023-12-19T15:44:11.594Z,3.67
2023-12-19T15:46:41.833Z,5.57
2023-12-19T15:51:42.152Z,4.45
2023-12-19T15:54:09.413Z,4.50
2023-12-19T15:56:38.667Z,4.57
2023-12-19T15:59:08.184Z,4.63
2023-12-19T16:01:35.571Z,4.68
2023-12-19T16:04:02.882Z,4.70
2023-12-19T16:06:30.129Z,4.38
2023-12-19T16:08:57.073Z,4.25
2023-12-19T16:11:25.340Z,3.97
2023-12-19T16:13:53.647Z,4.07
2023-12-19T16:16:20.530Z,4.57
2023-12-19T16:18:49.107Z,3.72
2023-12-19T16:21:17.709Z,5.13
2023-12-19T16:23:57.050Z,5.28
2023-12-19T16:26:30.852Z,5.70
2023-12-19T16:28:57.758Z,7.00
2023-12-19T16:31:24.536Z,7.53
2023-12-19T16:33:51.572Z,9.52
2023-12-19T16:36:19.029Z,9.57
2023-12-19T16:38:45.937Z,10.10
2023-12-19T16:41:12.881Z,10.25
2023-12-19T16:43:42.131Z,9.55
2023-12-19T16:46:10.838Z,11.02
2023-12-19T16:48:38.540Z,10.88
2023-12-19T16:51:06.618Z,12.45
2023-12-19T16:53:33.856Z,10.52
2023-12-19T16:56:00.571Z,10.60
2023-12-19T16:58:36.488Z,9.32
2023-12-19T17:01:10.045Z,8.55
2023-12-19T17:03:36.923Z,7.80
2023-12-19T17:06:04.475Z,7.80
2023-12-19T17:08:31.290Z,7.80
2023-12-19T17:10:59.085Z,8.40
2023-12-19T17:13:25.810Z,7.93
2023-12-19T17:15:52.561Z,7.30
2023-12-19T17:18:19.403Z,7.13
2023-12-19T17:20:46.415Z,6.68
2023-12-19T17:23:13.247Z,7.03
2023-12-19T17:25:41.115Z,6.88
2023-12-19T17:28:08.002Z,5.57
2023-12-19T17:30:37.053Z,5.97
2023-12-19T17:33:04.894Z,5.68
2023-12-19T17:35:31.970Z,6.20
2023-12-19T17:37:58.933Z,5.70
2023-12-19T17:40:25.666Z,5.60
2023-12-19T17:42:52.875Z,5.07
2023-12-19T17:45:19.646Z,5.25
2023-12-19T17:47:46.461Z,5.70
2023-12-19T17:50:13.541Z,5.80
2023-12-19T17:52:41.410Z,5.63
2023-12-19T17:55:08.807Z,5.50
2023-12-19T17:57:35.782Z,5.50
2023-12-19T18:00:02.648Z,5.45
2023-12-19T18:02:30.615Z,5.43
2023-12-19T18:04:58.549Z,5.53
2023-12-19T18:07:26.064Z,5.03
2023-12-19T18:09:53.919Z,4.60
2023-12-19T18:12:20.606Z,3.90
2023-12-19T18:14:47.391Z,4.13
2023-12-19T18:17:14.180Z,3.75
2023-12-19T18:19:40.993Z,3.67
2023-12-19T18:22:07.818Z,3.75
2023-12-19T18:24:34.538Z,3.58
2023-12-19T18:27:05.320Z,3.70
2023-12-19T18:29:32.288Z,4.22
2023-12-19T18:31:59.164Z,3.55
2023-12-19T18:34:26.977Z,4.15
2023-12-19T18:36:54.089Z,3.63
2023-12-19T18:39:22.649Z,3.45
2023-12-19T18:41:49.428Z,3.53
2023-12-19T18:44:16.748Z,3.67
2023-12-19T18:46:43.548Z,3.53
2023-12-19T18:49:10.758Z,4.25
2023-12-19T18:51:39.798Z,3.90
2023-12-19T18:54:07.735Z,3.85
2023-12-19T18:56:34.730Z,3.83
2023-12-19T18:59:03.586Z,3.92
2023-12-19T19:01:30.948Z,3.35
2023-12-19T19:03:58.404Z,3.28
2023-12-19T19:06:27.141Z,3.53
2023-12-19T19:08:54.555Z,3.92
2023-12-19T19:11:21.360Z,3.90
2023-12-19T19:13:48.240Z,4.50
2023-12-19T19:16:15.850Z,5.32
2023-12-19T19:18:44.929Z,5.28
2023-12-19T19:21:14.575Z,4.03
2023-12-19T19:23:41.782Z,4.50
2023-12-19T19:26:08.579Z,3.30
2023-12-19T19:28:35.630Z,3.70
2023-12-19T19:31:02.781Z,3.38
2023-12-19T19:33:33.152Z,3.72
2023-12-19T19:36:01.034Z,3.75
2023-12-19T19:38:29.211Z,2.72
2023-12-19T19:40:57.246Z,2.90
2023-12-19T19:43:24.355Z,1.83
2023-12-19T19:45:54.168Z,2.30
2023-12-19T19:48:21.087Z,2.03
2023-12-19T19:50:47.900Z,1.98
2023-12-19T19:53:15.047Z,2.45
2023-12-19T19:55:41.758Z,1.90
2023-12-19T19:58:08.596Z,1.80
2023-12-19T20:00:35.643Z,1.65
2023-12-19T20:03:04.566Z,1.65
2023-12-19T20:05:31.884Z,1.50
2023-12-19T20:07:58.755Z,1.50
2023-12-19T20:10:26.014Z,1.52
2023-12-19T20:12:53.924Z,1.30
2023-12-19T20:15:20.698Z,1.40
2023-12-19T20:17:47.467Z,1.25
2023-12-19T20:20:14.633Z,1.10
2023-12-19T20:22:42.996Z,1.40
2023-12-19T20:25:10.096Z,1.92
2023-12-19T20:27:37.021Z,1.60
2023-12-19T20:30:04.297Z,1.75
2023-12-19T20:32:31.036Z,1.73
2023-12-19T20:34:57.861Z,1.33
2023-12-19T20:37:24.767Z,1.58
2023-12-19T20:39:52.633Z,1.40
2023-12-19T20:42:20.070Z,1.63
2023-12-19T20:44:48.134Z,3.38
2023-12-19T20:47:16.143Z,2.65
2023-12-19T20:49:43.086Z,2.30
2023-12-19T20:52:09.862Z,2.10
2023-12-19T20:54:36.684Z,2.10
2023-12-19T20:57:04.845Z,1.70
2023-12-19T20:59:37.283Z,5.78
2023-12-19T21:02:06.765Z,2.78
2023-12-19T21:04:33.502Z,3.10
2023-12-19T21:07:00.443Z,2.22
2023-12-19T21:09:27.179Z,1.73
2023-12-19T21:11:54.021Z,1.42
2023-12-19T21:14:21.240Z,1.13
2023-12-19T21:17:01.334Z,1.50
2023-12-19T21:19:35.538Z,1.30
2023-12-19T21:22:02.527Z,1.35
2023-12-19T21:24:29.802Z,1.13
2023-12-19T21:26:57.997Z,1.02
2023-12-19T21:29:24.716Z,1.10
2023-12-19T21:31:52.707Z,0.95
2023-12-19T21:34:19.702Z,1.10
2023-12-19T21:36:47.811Z,0.98
2023-12-19T21:39:15.176Z,1.20
2023-12-19T21:41:44.190Z,1.15
2023-12-19T21:44:10.992Z,1.00
2023-12-19T21:46:38.203Z,1.20
2023-12-19T21:49:05.992Z,0.90
2023-12-19T21:51:37.308Z,0.93
2023-12-19T21:54:09.625Z,0.90
2023-12-19T21:56:40.126Z,0.82
2023-12-19T22:01:35.788Z,0.80
2023-12-19T22:04:02.820Z,0.70
2023-12-19T22:06:29.771Z,1.08
2023-12-19T22:08:57.220Z,1.35
2023-12-19T22:11:24.083Z,1.42
2023-12-19T22:13:50.861Z,1.10
2023-12-19T22:16:21.381Z,0.82
2023-12-19T22:18:48.709Z,1.10
2023-12-19T22:21:24.198Z,1.25
2023-12-19T22:23:51.839Z,1.20
2023-12-19T22:26:21.797Z,1.15
2023-12-19T22:28:49.239Z,1.20
2023-12-19T22:31:16.980Z,0.98
2023-12-19T22:33:46.265Z,0.75
2023-12-19T22:36:13.262Z,0.75
2023-12-19T22:38:40.559Z,1.08
2023-12-19T22:41:08.302Z,1.02
2023-12-19T22:43:36.117Z,0.85
2023-12-19T22:46:03.317Z,1.23
2023-12-19T22:48:30.069Z,0.90
2023-12-19T22:50:56.752Z,1.00
2023-12-19T22:53:23.485Z,1.10
2023-12-19T22:55:50.275Z,0.90
2023-12-19T22:58:17.611Z,1.02
2023-12-19T23:00:44.738Z,0.80
2023-12-19T23:03:17.983Z,1.23
2023-12-19T23:05:45.316Z,0.82
2023-12-19T23:08:12.271Z,0.90
2023-12-19T23:10:39.258Z,0.75
2023-12-19T23:13:06.951Z,1.20
2023-12-19T23:15:37.104Z,0.90
2023-12-19T23:18:04.934Z,1.40
2023-12-19T23:20:32.993Z,0.68
2023-12-19T23:23:00.272Z,1.38
2023-12-19T23:25:27.173Z,1.00
2023-12-19T23:27:54.995Z,0.90
2023-12-19T23:30:22.218Z,0.93
2023-12-19T23:32:49.233Z,1.02
2023-12-19T23:35:16.171Z,0.70
2023-12-19T23:37:43.487Z,1.25
2023-12-19T23:40:11.490Z,0.85
2023-12-19T23:42:38.294Z,1.25
2023-12-19T23:45:06.237Z,1.27
2023-12-19T23:47:32.987Z,1.30
2023-12-19T23:49:59.943Z,1.55
2023-12-19T23:52:26.886Z,1.40
2023-12-19T23:54:53.686Z,1.40
2023-12-19T23:57:20.419Z,1.42
2023-12-19T23:59:47.115Z,1.23
